Time;durP1;ratioP1;P1;durP2;ratioP2;P2;SDS_P1;SDS_P2;PMS_P1;PMS_P2;Temp;Humidity;BMP_temperature;BMP_pressure;BME280_temperature;BME280_humidity;BME280_pressure;Samples;Min_cycle;Max_cycle;Signal;HPM_P1;HPM_P2
2023/06/16 00:01:06;;;;;;;11.17;10.47;;;;;;;18.93;100.00;92369.66;5061379;28;20216;-80
2023/06/16 00:03:35;;;;;;;11.20;10.40;;;;;;;18.91;100.00;92377.19;5057332;28;20181;-79
2023/06/16 00:06:14;;;;;;;10.30;9.70;;;;;;;18.80;100.00;92354.94;5067293;28;20205;-80
2023/06/16 00:08:45;;;;;;;10.87;10.27;;;;;;;18.63;100.00;92341.97;5066382;28;20174;-81
2023/06/16 00:11:19;;;;;;;10.47;9.83;;;;;;;18.70;100.00;92347.44;5053305;28;20227;-80
2023/06/16 00:13:46;;;;;;;10.33;9.37;;;;;;;18.70;100.00;92366.75;5062650;28;20197;-81
2023/06/16 00:16:22;;;;;;;11.30;10.60;;;;;;;18.77;100.00;92360.91;5060759;28;20237;-81
2023/06/16 00:18:52;;;;;;;11.87;10.87;;;;;;;18.84;100.00;92371.66;5061568;28;20189;-81
2023/06/16 00:21:29;;;;;;;10.93;10.33;;;;;;;18.78;100.00;92367.72;5054558;28;20234;-80
2023/06/16 00:23:56;;;;;;;11.50;10.70;;;;;;;18.57;100.00;92353.84;5060250;28;20174;-80
2023/06/16 00:26:22;;;;;;;12.13;11.40;;;;;;;18.74;100.00;92359.66;5062064;28;20210;-80
2023/06/16 00:28:48;;;;;;;11.93;11.13;;;;;;;18.73;100.00;92344.91;5062041;28;20174;-80
2023/06/16 00:31:15;;;;;;;12.07;11.27;;;;;;;18.72;100.00;92347.91;5059302;28;20265;-81
2023/06/16 00:33:40;;;;;;;10.93;10.23;;;;;;;18.80;100.00;92339.06;5057369;28;20186;-80
2023/06/16 00:36:06;;;;;;;11.93;11.10;;;;;;;18.95;100.00;92359.50;5059204;28;20212;-80
2023/06/16 00:38:31;;;;;;;10.90;10.17;;;;;;;18.85;100.00;92344.88;5061501;28;20190;-80
2023/06/16 00:40:56;;;;;;;12.63;11.73;;;;;;;18.90;100.00;92351.81;5065949;28;20285;-80
2023/06/16 00:43:22;;;;;;;11.90;11.00;;;;;;;18.86;100.00;92358.88;5061807;28;20194;-80
2023/06/16 00:45:49;;;;;;;11.40;10.60;;;;;;;19.00;100.00;92354.75;5063128;28;20389;-80
2023/06/16 00:48:15;;;;;;;11.23;10.50;;;;;;;18.97;100.00;92355.41;5068968;28;20193;-81
2023/06/16 00:50:41;;;;;;;12.60;11.80;;;;;;;18.87;100.00;92344.53;5067747;28;20217;-81
2023/06/16 00:53:07;;;;;;;12.60;11.63;;;;;;;18.82;100.00;92328.91;5069155;28;20220;-81
2023/06/16 00:55:32;;;;;;;11.73;10.83;;;;;;;18.37;100.00;92337.00;5068966;28;20236;-81
2023/06/16 00:57:58;;;;;;;12.60;11.70;;;;;;;18.75;100.00;92339.28;5072205;28;20186;-81
2023/06/16 01:00:23;;;;;;;12.63;11.73;;;;;;;18.59;100.00;92306.72;5072592;28;20224;-81
2023/06/16 01:02:50;;;;;;;12.90;12.00;;;;;;;18.81;100.00;92328.16;5073060;28;20185;-80
2023/06/16 01:05:20;;;;;;;12.70;11.80;;;;;;;18.75;100.00;92328.72;5072156;28;20224;-81
2023/06/16 01:07:45;;;;;;;11.63;10.73;;;;;;;18.81;100.00;92336.09;5078578;28;20217;-81
2023/06/16 01:10:29;;;;;;;11.80;11.00;;;;;;;18.81;100.00;92324.72;5072260;28;20225;-81
2023/06/16 01:13:10;;;;;;;10.57;9.97;;;;;;;18.53;100.00;92292.19;5104998;28;20183;-81
2023/06/16 01:15:39;;;;;;;11.30;10.60;;;;;;;18.71;100.00;92330.47;5072411;28;20297;-81
2023/06/16 01:18:06;;;;;;;12.13;11.20;;;;;;;18.65;100.00;92300.06;5072573;28;20198;-81
2023/06/16 01:20:54;;;;;;;12.87;11.87;;;;;;;18.75;100.00;92312.84;5070123;28;20233;-81
2023/06/16 01:23:40;;;;;;;12.37;11.57;;;;;;;18.76;100.00;92312.50;5071777;28;20181;-81
2023/06/16 01:26:09;;;;;;;12.50;11.47;;;;;;;18.69;100.00;92311.53;5066077;28;20218;-81
2023/06/16 01:28:39;;;;;;;11.63;10.73;;;;;;;18.76;100.00;92311.72;5072420;28;20216;-81
2023/06/16 01:31:08;;;;;;;13.33;12.37;;;;;;;18.81;100.00;92304.34;5072239;28;20231;-82
2023/06/16 01:33:37;;;;;;;12.93;12.00;;;;;;;18.85;100.00;92307.84;5085572;28;20194;-80
2023/06/16 01:36:04;;;;;;;13.07;11.77;;;;;;;18.77;100.00;92302.72;5071863;28;20229;-81
2023/06/16 01:38:30;;;;;;;13.77;12.47;;;;;;;18.88;100.00;92311.69;5072467;28;20201;-81
2023/06/16 01:40:58;;;;;;;13.13;12.23;;;;;;;18.80;100.00;92302.03;5071524;28;20237;-81
2023/06/16 01:43:24;;;;;;;11.33;10.63;;;;;;;18.86;100.00;92308.63;5104825;28;20261;-80
2023/06/16 01:45:51;;;;;;;13.10;12.13;;;;;;;18.88;100.00;92309.03;5070434;28;20217;-81
2023/06/16 01:48:19;;;;;;;11.43;10.63;;;;;;;18.84;100.00;92313.47;5071985;28;20189;-83
2023/06/16 01:50:44;;;;;;;12.37;10.73;;;;;;;18.75;100.00;92295.09;5071726;28;20236;-80
2023/06/16 01:53:10;;;;;;;12.10;11.10;;;;;;;18.79;100.00;92295.19;5070941;28;20238;-81
2023/06/16 01:55:35;;;;;;;11.67;10.70;;;;;;;18.77;100.00;92292.88;5104121;28;20229;-81
2023/06/16 01:58:00;;;;;;;13.77;12.57;;;;;;;18.72;100.00;92300.28;5117213;28;20178;-81
2023/06/16 02:00:33;;;;;;;12.80;11.80;;;;;;;18.82;100.00;92294.50;5081980;28;20646;-81
2023/06/16 02:03:10;;;;;;;11.20;10.50;;;;;;;18.73;100.00;92280.66;5072953;28;20680;-81
2023/06/16 02:05:40;;;;;;;12.43;11.53;;;;;;;18.91;100.00;92303.84;5071451;28;20229;-83
2023/06/16 02:08:07;;;;;;;12.27;11.30;;;;;;;18.90;100.00;92306.84;5071489;28;20245;-81
2023/06/16 02:10:33;;;;;;;12.40;11.60;;;;;;;19.01;100.00;92315.84;5078449;28;20240;-79
2023/06/16 02:12:59;;;;;;;11.87;11.07;;;;;;;18.80;100.00;92288.81;5071753;28;20185;-79
2023/06/16 02:15:27;;;;;;;12.93;11.93;;;;;;;18.85;100.00;92301.78;5071180;28;20221;-77
2023/06/16 02:17:53;;;;;;;14.67;13.27;;;;;;;18.46;100.00;92257.63;5083033;28;20216;-79
2023/06/16 02:20:18;;;;;;;13.43;12.17;;;;;;;18.80;100.00;92302.78;5071852;28;20238;-80
2023/06/16 02:22:44;;;;;;;13.93;12.93;;;;;;;18.82;100.00;92300.59;5082082;28;20221;-79
2023/06/16 02:25:09;;;;;;;14.00;12.87;;;;;;;18.71;100.00;92301.38;5071305;28;20289;-79
2023/06/16 02:27:35;;;;;;;14.83;13.33;;;;;;;18.61;100.00;92307.16;5083193;28;20182;-79
2023/06/16 02:30:01;;;;;;;14.97;13.67;;;;;;;18.88;100.00;92311.69;5069712;28;20228;-80
2023/06/16 02:32:26;;;;;;;15.60;13.93;;;;;;;18.93;100.00;92311.44;5083762;28;20190;-79
2023/06/16 02:34:52;;;;;;;14.30;12.97;;;;;;;18.80;100.00;92294.84;5070699;28;20252;-79
2023/06/16 02:37:27;;;;;;;15.27;13.70;;;;;;;18.95;100.00;92314.53;5071692;28;20197;-79
2023/06/16 02:39:52;;;;;;;14.30;13.20;;;;;;;18.82;100.00;92302.44;5070389;28;20228;-79
2023/06/16 02:42:18;;;;;;;14.93;13.33;;;;;;;18.95;100.00;92314.53;5071365;28;20205;-78
2023/06/16 02:44:43;;;;;;;16.17;14.60;;;;;;;18.96;100.00;92311.56;5082245;28;20329;-79
2023/06/16 02:47:09;;;;;;;16.37;15.07;;;;;;;18.95;100.00;92310.03;5061889;28;20197;-79
2023/06/16 02:49:34;;;;;;;16.30;14.80;;;;;;;18.97;100.00;92312.34;5058593;28;21873;-79
2023/06/16 02:51:59;;;;;;;15.77;14.10;;;;;;;18.98;100.00;92308.56;5070885;28;20191;-79
2023/06/16 02:54:25;;;;;;;16.20;14.70;;;;;;;18.74;100.00;92284.88;5069510;28;20222;-79
2023/06/16 02:56:50;;;;;;;15.23;13.83;;;;;;;18.96;100.00;92308.13;5071340;28;20660;-79
2023/06/16 02:59:16;;;;;;;16.67;15.23;;;;;;;18.90;100.00;92309.47;5070379;28;20186;-79
2023/06/16 03:01:41;;;;;;;15.50;14.20;;;;;;;18.80;100.00;92294.84;5071492;28;20779;-79
2023/06/16 03:04:06;;;;;;;16.03;14.63;;;;;;;18.75;100.00;92304.91;5057869;28;20274;-79
2023/06/16 03:06:34;;;;;;;16.20;14.73;;;;;;;18.93;100.00;92308.81;5070887;28;20258;-75
2023/06/16 03:09:00;;;;;;;16.23;14.63;;;;;;;18.90;100.00;92306.84;5068202;28;20190;-75
2023/06/16 03:11:25;;;;;;;15.73;14.23;;;;;;;18.90;100.00;92298.91;5070103;28;20858;-75
2023/06/16 03:13:51;;;;;;;15.67;14.10;;;;;;;18.79;100.00;92284.59;5103343;28;20197;-76
2023/06/16 03:16:17;;;;;;;16.10;14.47;;;;;;;18.75;100.00;92276.59;5070185;28;20267;-75
2023/06/16 03:18:43;;;;;;;14.07;12.97;;;;;;;18.77;100.00;92281.56;5069233;28;20182;-76
2023/06/16 03:21:08;;;;;;;14.30;13.13;;;;;;;18.85;100.00;92305.19;5081048;28;20296;-75
2023/06/16 03:23:34;;;;;;;13.37;11.60;;;;;;;18.92;100.00;92300.13;5069551;28;20197;-76
2023/06/16 03:25:59;;;;;;;12.67;11.73;;;;;;;18.86;100.00;92301.44;5070240;28;20224;-75
2023/06/16 03:28:25;;;;;;;13.83;12.70;;;;;;;18.90;100.00;92301.53;5068941;28;20264;-75
2023/06/16 03:30:53;;;;;;;13.80;12.70;;;;;;;18.53;100.00;92252.53;5069987;28;20234;-74
2023/06/16 03:33:20;;;;;;;14.57;13.47;;;;;;;18.91;100.00;92300.47;5070353;28;20189;-75
2023/06/16 03:35:45;;;;;;;13.07;12.07;;;;;;;18.86;100.00;92290.09;5102941;28;20219;-75
2023/06/16 03:38:11;;;;;;;14.47;13.47;;;;;;;18.93;100.00;92279.69;5068725;28;20187;-75
2023/06/16 03:40:38;;;;;;;15.97;14.47;;;;;;;18.60;100.00;92277.28;5072120;28;20237;-76
2023/06/16 03:43:03;;;;;;;15.87;14.53;;;;;;;18.96;100.00;92294.91;5069844;28;21684;-77
2023/06/16 03:45:28;;;;;;;16.03;14.40;;;;;;;19.08;100.00;92286.94;5069676;28;20218;-78
2023/06/16 03:47:54;;;;;;;16.37;14.60;;;;;;;19.10;100.00;92290.00;5065812;28;20215;-79
2023/06/16 03:50:19;;;;;;;18.10;16.40;;;;;;;19.09;100.00;92262.00;5067095;28;20262;-69
2023/06/16 03:52:45;;;;;;;18.90;16.27;;;;;;;19.26;100.00;92277.56;5067973;28;20193;-69
2023/06/16 03:55:10;;;;;;;19.00;16.83;;;;;;;19.24;100.00;92279.78;5068961;28;20226;-71
2023/06/16 03:57:35;;;;;;;17.73;15.97;;;;;;;19.23;100.00;92280.91;5069096;28;20252;-74
2023/06/16 04:00:02;;;;;;;17.47;15.53;;;;;;;19.23;100.00;92280.13;5068946;28;20229;-75
2023/06/16 04:02:28;;;;;;;18.03;16.23;;;;;;;19.16;100.00;92262.19;5065019;28;20188;-73
2023/06/16 04:04:55;;;;;;;17.97;16.20;;;;;;;19.49;100.00;92275.91;5068315;28;20222;-71
2023/06/16 04:07:21;;;;;;;20.30;17.07;;;;;;;19.53;100.00;92279.44;5068026;28;20189;-75
2023/06/16 04:09:46;;;;;;;25.37;17.03;;;;;;;19.50;100.00;92288.06;5068726;28;20240;-76
2023/06/16 04:12:12;;;;;;;18.57;16.33;;;;;;;19.33;100.00;92267.19;5069136;28;20183;-72
2023/06/16 04:14:37;;;;;;;17.33;15.73;;;;;;;19.35;100.00;92256.28;5068561;28;20253;-71
2023/06/16 04:17:03;;;;;;;17.07;15.20;;;;;;;19.29;100.00;92260.25;5067745;28;20184;-70
2023/06/16 04:19:28;;;;;;;16.57;15.10;;;;;;;19.44;100.00;92262.94;5063800;28;20237;-72
2023/06/16 04:21:54;;;;;;;15.40;14.00;;;;;;;19.58;100.00;92267.81;5065978;28;20193;-73
2023/06/16 04:24:19;;;;;;;15.90;14.50;;;;;;;19.40;100.00;92267.38;5066154;28;20265;-74
2023/06/16 04:26:48;;;;;;;16.97;15.27;;;;;;;19.17;100.00;92242.56;5059989;28;20194;-71
2023/06/16 04:29:14;;;;;;;17.13;15.43;;;;;;;19.50;100.00;92266.09;5058300;28;20207;-74
2023/06/16 04:31:42;;;;;;;17.73;15.87;;;;;;;19.32;100.00;92260.34;5062479;28;20221;-76
2023/06/16 04:34:10;;;;;;;18.60;16.90;;;;;;;19.36;100.00;92263.88;5096502;28;20186;-74
2023/06/16 04:36:36;;;;;;;17.27;15.77;;;;;;;19.30;100.00;92256.53;5070583;28;20275;-76
2023/06/16 04:39:03;;;;;;;20.57;18.47;;;;;;;19.55;100.00;92269.25;5077460;28;20193;-82
2023/06/16 04:41:28;;;;;;;18.87;17.00;;;;;;;19.37;100.00;92262.75;5078674;28;20237;-82
2023/06/16 04:43:54;;;;;;;18.03;16.20;;;;;;;19.41;100.00;92263.59;5071181;28;20174;-82
2023/06/16 04:46:19;;;;;;;20.03;18.03;;;;;;;19.36;100.00;92265.75;5072128;28;20226;-83
2023/06/16 04:48:45;;;;;;;19.40;17.33;;;;;;;19.36;100.00;92265.75;5079408;28;20185;-82
2023/06/16 04:51:10;;;;;;;19.60;17.67;;;;;;;19.22;100.00;92263.50;5079750;28;20240;-82
2023/06/16 04:53:36;;;;;;;20.87;18.90;;;;;;;19.19;100.00;92272.09;5079018;28;20272;-84
2023/06/16 04:56:02;;;;;;;21.63;19.53;;;;;;;19.10;100.00;92260.88;5075783;28;20224;-82
2023/06/16 04:58:29;;;;;;;20.53;18.63;;;;;;;19.06;100.00;92244.16;5071013;28;20194;-83
2023/06/16 05:00:54;;;;;;;21.57;19.37;;;;;;;19.13;100.00;92252.28;5071306;28;20228;-82
2023/06/16 05:03:19;;;;;;;20.00;17.90;;;;;;;19.32;100.00;92260.34;5080553;28;20197;-83
2023/06/16 05:05:45;;;;;;;20.17;18.23;;;;;;;19.32;100.00;92264.88;5088899;28;20259;-83
2023/06/16 05:08:11;;;;;;;21.03;18.93;;;;;;;19.12;100.00;92250.75;5079605;28;20184;-82
2023/06/16 05:10:37;;;;;;;21.27;19.17;;;;;;;19.02;100.00;92254.66;5076275;28;20235;-83
2023/06/16 05:13:02;;;;;;;20.83;18.87;;;;;;;18.82;100.00;92260.91;5081317;28;20204;-83
2023/06/16 05:15:28;;;;;;;21.47;19.33;;;;;;;19.23;100.00;92262.38;5076227;28;20247;-82
2023/06/16 05:17:53;;;;;;;19.60;17.80;;;;;;;19.38;100.00;92252.94;5073057;28;20186;-81
2023/06/16 05:20:19;;;;;;;18.63;16.73;;;;;;;19.52;100.00;92246.09;5072966;28;20317;-83
2023/06/16 05:22:44;;;;;;;17.27;15.57;;;;;;;19.76;100.00;92277.72;5087226;28;20203;-83
2023/06/16 05:25:10;;;;;;;19.30;17.57;;;;;;;19.17;100.00;92261.09;5066683;28;20219;-83
2023/06/16 05:27:35;;;;;;;18.90;17.10;;;;;;;19.36;100.00;92271.03;5072613;28;20191;-83
2023/06/16 05:30:01;;;;;;;27.80;21.03;;;;;;;19.00;100.00;92269.31;5076668;28;20963;-82
2023/06/16 05:32:26;;;;;;;30.23;23.90;;;;;;;18.46;100.00;92249.69;5079894;28;20193;-83
2023/06/16 05:34:53;;;;;;;26.13;22.87;;;;;;;19.07;100.00;92280.88;5072130;28;20233;-83
2023/06/16 05:37:20;;;;;;;28.57;23.30;;;;;;;19.14;100.00;92264.41;5063877;28;20190;-82
2023/06/16 05:39:46;;;;;;;27.07;21.87;;;;;;;19.49;100.00;92273.28;5067866;28;20241;-83
2023/06/16 05:42:13;;;;;;;25.97;22.03;;;;;;;19.60;100.00;92284.91;5079141;28;20174;-82
2023/06/16 05:44:40;;;;;;;25.87;23.17;;;;;;;19.73;100.00;92285.59;5072857;28;20907;-83
2023/06/16 05:47:06;;;;;;;25.60;22.80;;;;;;;19.14;100.00;92270.44;5071978;28;20190;-83
2023/06/16 05:49:31;;;;;;;24.93;22.23;;;;;;;19.56;100.00;92284.06;5070285;28;21059;-72
2023/06/16 05:51:58;;;;;;;25.13;22.57;;;;;;;19.77;100.00;92286.44;5071855;28;20239;-72
2023/06/16 05:54:23;;;;;;;25.67;22.87;;;;;;;19.88;100.00;92288.22;5069967;28;20284;-70
2023/06/16 05:56:49;;;;;;;22.97;20.77;;;;;;;19.88;100.00;92282.94;5072276;28;20778;-71
2023/06/16 05:59:14;;;;;;;24.10;21.80;;;;;;;20.04;100.00;92290.88;5070269;28;20188;-71
2023/06/16 06:01:40;;;;;;;25.67;23.03;;;;;;;19.83;100.00;92240.78;5065030;28;20187;-71
2023/06/16 06:04:05;;;;;;;24.53;22.03;;;;;;;19.62;100.00;92279.25;5064364;28;20250;-71
2023/06/16 06:06:30;;;;;;;25.80;23.10;;;;;;;19.03;100.00;92272.06;5063708;28;20263;-69
2023/06/16 06:08:56;;;;;;;25.93;23.23;;;;;;;19.11;100.00;92287.00;5061046;28;20191;-70
2023/06/16 06:11:21;;;;;;;26.27;22.90;;;;;;;20.05;100.00;92282.56;5067571;28;20238;-71
2023/06/16 06:13:47;;;;;;;25.63;23.07;;;;;;;19.93;100.00;92293.28;5065575;28;20197;-72
2023/06/16 06:16:13;;;;;;;26.10;23.43;;;;;;;19.86;100.00;92300.31;5057705;28;20281;-71
2023/06/16 06:18:38;;;;;;;23.80;20.57;;;;;;;19.77;100.00;92292.50;5053327;28;20213;-71
2023/06/16 06:21:03;;;;;;;23.67;21.27;;;;;;;19.56;100.00;92280.63;5068116;28;20294;-72
2023/06/16 06:23:29;;;;;;;24.50;21.97;;;;;;;20.47;100.00;92291.50;5060692;28;20200;-72
2023/06/16 06:25:55;;;;;;;22.43;20.33;;;;;;;20.93;100.00;92291.69;5062427;28;20226;-71
2023/06/16 06:28:23;;;;;;;23.43;21.03;;;;;;;21.09;100.00;92293.19;5050861;28;20191;-71
2023/06/16 06:30:48;;;;;;;22.37;20.23;;;;;;;21.56;100.00;92295.56;5067834;28;20263;-70
2023/06/16 06:33:13;;;;;;;23.60;19.67;;;;;;;21.18;100.00;92300.94;5070185;28;20208;-71
2023/06/16 06:35:39;;;;;;;23.70;20.03;;;;;;;21.10;100.00;92300.03;5058597;28;20228;-72
2023/06/16 06:38:04;;;;;;;23.33;21.00;;;;;;;23.21;94.25;92293.50;5055294;28;20223;-72
2023/06/16 06:40:31;;;;;;;21.65;19.58;;;;;;;23.83;87.48;92302.53;5065115;28;20233;-73
2023/06/16 06:42:57;;;;;;;19.58;17.77;;;;;;;23.86;85.09;92307.13;5067011;28;20263;-71
2023/06/16 06:45:22;;;;;;;18.88;17.00;;;;;;;23.58;87.84;92299.63;5056953;28;20218;-72
2023/06/16 06:47:47;;;;;;;16.05;14.75;;;;;;;24.33;81.93;92307.19;5060063;28;20192;-70
2023/06/16 06:50:13;;;;;;;14.10;13.10;;;;;;;24.39;81.00;92302.28;5057100;28;20291;-71
2023/06/16 06:52:38;;;;;;;14.90;13.63;;;;;;;24.04;82.59;92299.34;5056297;28;20192;-71
2023/06/16 06:55:04;;;;;;;14.65;13.40;;;;;;;23.99;82.43;92294.31;5060507;28;20233;-72
2023/06/16 06:57:29;;;;;;;13.80;12.70;;;;;;;23.71;83.39;92295.59;5095522;28;20221;-71
2023/06/16 06:59:55;;;;;;;14.63;13.23;;;;;;;23.62;83.71;92283.69;5068204;28;20243;-71
2023/06/16 07:02:21;;;;;;;13.90;12.70;;;;;;;23.36;84.85;92299.78;5068749;28;20182;-69
2023/06/16 07:04:46;;;;;;;13.57;12.38;;;;;;;23.13;86.20;92280.47;5054766;28;20286;-69
2023/06/16 07:07:13;;;;;;;14.35;13.05;;;;;;;22.90;87.13;92293.09;5068892;28;20175;-69
2023/06/16 07:09:38;;;;;;;14.30;13.20;;;;;;;22.60;89.71;92289.69;5063312;28;20245;-68
2023/06/16 07:12:04;;;;;;;14.38;12.88;;;;;;;22.60;87.36;92289.69;5068908;28;20179;-69
2023/06/16 07:14:30;;;;;;;13.52;12.50;;;;;;;22.55;88.61;92285.44;5068196;28;20239;-71
2023/06/16 07:16:57;;;;;;;17.08;15.52;;;;;;;22.79;87.57;92287.66;5068757;28;20729;-70
2023/06/16 07:19:26;;;;;;;13.60;12.38;;;;;;;23.13;86.06;92289.22;5069710;28;20238;-69
2023/06/16 07:21:55;;;;;;;13.73;12.57;;;;;;;23.36;84.68;92292.56;5069599;28;20209;-69
2023/06/16 07:24:21;;;;;;;13.70;12.63;;;;;;;23.21;85.44;92287.41;5068303;28;20234;-70
2023/06/16 07:26:46;;;;;;;13.20;12.00;;;;;;;23.22;84.35;92278.28;5070517;28;20270;-70
2023/06/16 07:29:12;;;;;;;13.07;12.07;;;;;;;23.10;86.06;92281.94;5068318;28;20199;-70
2023/06/16 07:31:37;;;;;;;13.70;12.40;;;;;;;23.13;85.11;92281.22;5070004;28;20212;-69
2023/06/16 07:34:03;;;;;;;12.95;11.95;;;;;;;22.65;85.92;92271.50;5069152;28;20200;-70
2023/06/16 07:36:30;;;;;;;12.55;11.65;;;;;;;22.92;85.52;92285.53;5069872;28;20181;-71
2023/06/16 07:38:55;;;;;;;13.32;12.23;;;;;;;22.77;84.54;92295.22;5069975;28;20192;-70
2023/06/16 07:41:21;;;;;;;13.27;12.15;;;;;;;22.60;87.60;92295.00;5069667;28;20278;-70
2023/06/16 07:43:48;;;;;;;13.75;12.55;;;;;;;22.56;85.34;92291.53;5070554;28;20213;-69
2023/06/16 07:46:13;;;;;;;12.95;12.13;;;;;;;22.70;85.09;92292.47;5066280;28;20260;-69
2023/06/16 07:48:39;;;;;;;12.68;11.70;;;;;;;23.33;83.24;92305.84;5066007;28;20181;-69
2023/06/16 07:51:04;;;;;;;12.50;11.50;;;;;;;23.20;81.27;92299.19;5068058;28;20219;-69
2023/06/16 07:53:31;;;;;;;12.32;11.45;;;;;;;23.07;80.99;92293.34;5069932;28;20223;-71
2023/06/16 07:55:56;;;;;;;13.57;12.13;;;;;;;23.20;82.80;92302.63;5068911;28;20237;-70
2023/06/16 07:58:22;;;;;;;15.27;13.95;;;;;;;22.97;81.54;92301.97;5069680;28;20190;-70
2023/06/16 08:00:51;;;;;;;16.65;15.05;;;;;;;22.47;87.02;92280.34;5061561;28;20237;-78
2023/06/16 08:03:18;;;;;;;17.48;15.88;;;;;;;22.38;86.89;92291.25;5068172;28;20179;-74
2023/06/16 08:05:43;;;;;;;16.65;15.05;;;;;;;21.93;87.17;92278.03;5068573;28;20232;-75
2023/06/16 08:08:08;;;;;;;17.90;16.02;;;;;;;21.86;88.06;92301.81;5069416;28;20186;-77
2023/06/16 08:10:34;;;;;;;17.92;16.33;;;;;;;21.90;87.14;92289.34;5068852;28;20245;-75
2023/06/16 08:13:00;;;;;;;18.73;16.90;;;;;;;21.69;88.65;92305.69;5068722;28;20194;-75
2023/06/16 08:15:25;;;;;;;19.42;17.70;;;;;;;21.76;89.38;92305.84;5068702;28;20245;-75
2023/06/16 08:17:51;;;;;;;18.88;16.30;;;;;;;21.75;89.08;92309.63;5069410;28;20185;-75
2023/06/16 08:20:16;;;;;;;18.77;16.25;;;;;;;21.40;90.19;92294.91;5068750;28;20231;-75
2023/06/16 08:22:42;;;;;;;18.75;16.75;;;;;;;22.10;89.18;92307.53;5067100;28;20208;-75
2023/06/16 08:25:08;;;;;;;17.95;16.27;;;;;;;22.43;87.36;92296.25;5068859;28;20228;-76
2023/06/16 08:27:33;;;;;;;17.73;16.10;;;;;;;22.80;85.00;92309.72;5068566;28;20199;-75
2023/06/16 08:29:59;;;;;;;18.05;16.33;;;;;;;23.12;82.59;92298.34;5068521;28;20259;-74
2023/06/16 08:32:24;;;;;;;17.13;15.63;;;;;;;23.60;80.49;92321.38;5072124;28;20262;-74
2023/06/16 08:34:50;;;;;;;17.05;15.25;;;;;;;24.55;77.04;92297.44;5076946;28;20224;-78
2023/06/16 08:37:15;;;;;;;18.40;16.65;;;;;;;24.93;75.25;92294.25;5069588;28;20247;-78
2023/06/16 08:39:44;;;;;;;19.38;17.13;;;;;;;24.75;76.03;92304.06;5068971;28;20241;-79
2023/06/16 08:42:13;;;;;;;18.85;16.98;;;;;;;25.82;74.69;92317.50;5068687;28;20187;-78
2023/06/16 08:44:40;;;;;;;17.70;16.17;;;;;;;26.05;70.94;92302.69;5064629;28;20271;-78
2023/06/16 08:47:08;;;;;;;17.67;15.88;;;;;;;26.99;70.10;92313.72;5069166;28;20187;-78
2023/06/16 08:49:33;;;;;;;17.67;15.77;;;;;;;26.77;66.13;92309.56;5070556;28;20792;-78
2023/06/16 08:52:02;;;;;;;17.90;16.23;;;;;;;26.28;69.26;92289.69;5069321;28;20210;-79
2023/06/16 08:54:36;;;;;;;17.52;16.02;;;;;;;26.14;68.55;92308.41;5068761;28;20258;-78
2023/06/16 08:57:04;;;;;;;18.95;17.05;;;;;;;25.15;70.92;92291.28;5068168;28;20200;-78
2023/06/16 08:59:32;;;;;;;20.75;18.65;;;;;;;25.29;70.66;92322.69;5065091;28;20332;-73
2023/06/16 09:02:01;;;;;;;19.17;17.33;;;;;;;24.72;74.04;92310.16;5057300;28;20183;-74
2023/06/16 09:04:28;;;;;;;19.23;17.27;;;;;;;24.97;73.44;92305.72;5064056;28;20242;-73
2023/06/16 09:06:56;;;;;;;18.50;16.60;;;;;;;25.79;70.71;92311.00;5063755;28;20188;-72
2023/06/16 09:09:22;;;;;;;18.60;16.75;;;;;;;25.45;70.91;92311.69;5071456;28;20232;-81
2023/06/16 09:12:02;;;;;;;18.25;16.38;;;;;;;25.69;69.01;92322.44;5101043;28;20266;-72
2023/06/16 09:14:31;;;;;;;17.95;15.75;;;;;;;25.86;65.46;92323.63;5055881;28;20283;-73
2023/06/16 09:16:59;;;;;;;22.70;20.08;;;;;;;25.40;70.51;92312.81;5061962;28;20189;-73
2023/06/16 09:19:25;;;;;;;19.58;17.80;;;;;;;25.42;69.57;92310.50;5072897;28;20223;-80
2023/06/16 09:21:54;;;;;;;19.08;17.38;;;;;;;25.28;67.92;92305.09;5069194;28;20235;-78
2023/06/16 09:24:27;;;;;;;17.98;16.38;;;;;;;25.31;66.71;92312.34;5071587;28;21089;-75
2023/06/16 09:26:57;;;;;;;18.65;16.90;;;;;;;25.32;68.88;92311.22;5068173;28;20180;-75
2023/06/16 09:29:28;;;;;;;19.17;17.23;;;;;;;25.61;67.38;92307.53;5069712;28;20260;-73
2023/06/16 09:32:00;;;;;;;18.85;17.15;;;;;;;25.26;68.00;92297.44;5100522;28;20280;-73
2023/06/16 09:34:32;;;;;;;17.45;15.95;;;;;;;24.87;69.68;92303.75;5071498;28;20236;-78
2023/06/16 09:36:57;;;;;;;18.00;16.42;;;;;;;24.41;71.90;92311.44;5071712;28;20300;-74
2023/06/16 09:39:26;;;;;;;17.98;16.35;;;;;;;24.26;72.28;92306.38;5071676;28;20221;-78
2023/06/16 09:41:53;;;;;;;17.58;15.73;;;;;;;24.13;73.04;92305.13;5071812;28;20195;-78
2023/06/16 09:44:22;;;;;;;18.45;16.65;;;;;;;23.85;72.46;92316.28;5082700;28;20231;-78
2023/06/16 09:46:49;;;;;;;17.83;16.13;;;;;;;23.94;72.31;92300.00;5071024;28;20189;-78
2023/06/16 09:49:23;;;;;;;19.48;17.63;;;;;;;24.08;72.92;92308.88;5070724;28;20200;-78
2023/06/16 09:51:53;;;;;;;18.02;16.52;;;;;;;23.85;73.53;92305.63;5071977;28;20239;-78
2023/06/16 09:54:20;;;;;;;19.75;17.88;;;;;;;24.33;71.78;92295.78;5103935;28;20385;-78
2023/06/16 09:56:46;;;;;;;19.63;17.73;;;;;;;24.69;71.15;92290.31;5071332;28;20177;-78
2023/06/16 09:59:12;;;;;;;19.95;18.15;;;;;;;24.99;68.95;92288.19;5069732;28;20184;-78
2023/06/16 10:01:40;;;;;;;19.02;17.13;;;;;;;25.38;66.91;92287.59;5070259;28;20198;-77
2023/06/16 10:04:08;;;;;;;19.77;17.98;;;;;;;25.76;68.39;92298.38;5075280;28;20188;-78
2023/06/16 10:06:41;;;;;;;18.20;16.55;;;;;;;25.95;66.63;92290.00;5071318;28;20251;-79
2023/06/16 10:09:09;;;;;;;19.42;17.67;;;;;;;25.57;65.80;92277.34;5070539;28;20196;-79
2023/06/16 10:11:37;;;;;;;20.80;18.75;;;;;;;25.48;69.73;92295.63;5071461;28;20247;-76
2023/06/16 10:14:07;;;;;;;19.55;17.73;;;;;;;25.76;66.63;92295.72;5072627;28;20186;-75
2023/06/16 10:16:33;;;;;;;19.23;17.55;;;;;;;25.38;69.20;92292.94;5071033;28;20184;-76
2023/06/16 10:19:00;;;;;;;21.70;19.55;;;;;;;25.34;68.04;92281.47;5070572;28;20230;-78
2023/06/16 10:21:26;;;;;;;19.27;17.42;;;;;;;25.59;67.32;92299.09;5071741;28;20184;-76
2023/06/16 10:23:52;;;;;;;20.60;18.52;;;;;;;25.58;69.12;92297.59;5069304;28;20214;-75
2023/06/16 10:26:18;;;;;;;20.65;18.50;;;;;;;26.17;66.43;92301.53;5071384;28;20239;-75
2023/06/16 10:28:45;;;;;;;20.42;18.40;;;;;;;25.30;67.76;92286.78;5074264;28;20185;-72
2023/06/16 10:31:12;;;;;;;21.35;19.20;;;;;;;24.53;71.84;92286.38;5069870;28;20220;-70
2023/06/16 10:33:55;;;;;;;21.05;19.20;;;;;;;25.45;67.28;92283.03;5071104;28;20319;-70
2023/06/16 10:36:27;;;;;;;21.98;19.30;;;;;;;25.02;69.38;92276.75;5070879;28;20219;-70
2023/06/16 10:39:08;;;;;;;20.35;18.25;;;;;;;25.19;69.23;92262.69;5071784;28;20184;-72
2023/06/16 10:41:33;;;;;;;19.73;18.02;;;;;;;26.39;62.48;92282.41;5070401;28;20204;-72
2023/06/16 10:44:21;;;;;;;20.67;18.77;;;;;;;25.56;68.09;92267.78;5070682;28;20197;-76
2023/06/16 10:47:09;;;;;;;21.40;19.13;;;;;;;26.67;63.00;92268.25;5069801;28;20251;-75
2023/06/16 10:49:43;;;;;;;21.58;19.38;;;;;;;26.13;66.31;92268.66;5070383;28;20259;-72
2023/06/16 10:52:09;;;;;;;20.80;18.83;;;;;;;24.66;69.38;92247.56;5069930;28;20180;-72
2023/06/16 10:54:43;;;;;;;21.58;19.58;;;;;;;25.35;68.09;92258.94;5069398;28;20291;-72
2023/06/16 10:57:10;;;;;;;21.02;19.05;;;;;;;25.71;65.43;92253.31;5070089;28;20200;-72
2023/06/16 10:59:51;;;;;;;21.20;19.00;;;;;;;25.82;66.12;92253.31;5076044;28;20240;-72
2023/06/16 11:02:24;;;;;;;21.02;18.70;;;;;;;25.94;64.95;92256.38;5073644;28;20199;-72
2023/06/16 11:05:08;;;;;;;20.92;18.73;;;;;;;25.31;68.66;92247.47;5063325;28;20239;-72
2023/06/16 11:08:05;;;;;;;30.67;18.95;;;;;;;25.71;67.69;92255.97;5067042;28;20188;-73
2023/06/16 11:11:03;;;;;;;21.75;18.90;;;;;;;25.26;67.02;92253.94;5069863;28;20315;-73
2023/06/16 11:13:40;;;;;;;21.27;19.20;;;;;;;24.56;68.96;92221.56;5064627;28;20223;-72